createdAt,value
2018-09-05T00:00:19.391Z,101105.00
2018-09-05T00:02:48.796Z,101104.00
2018-09-05T00:05:18.411Z,101102.00
2018-09-05T00:07:47.549Z,101104.00
2018-09-05T00:10:17.429Z,101102.00
2018-09-05T00:12:47.005Z,101104.00
2018-09-05T00:15:16.441Z,101103.00
2018-09-05T00:17:46.165Z,101094.00
2018-09-05T00:20:15.584Z,101096.00
2018-09-05T00:22:44.980Z,101103.00
2018-09-05T00:25:14.264Z,101101.00
2018-09-05T00:27:43.796Z,101089.00
2018-09-05T00:30:13.725Z,101087.00
2018-09-05T00:32:43.331Z,101083.00
2018-09-05T00:35:12.833Z,101077.00
2018-09-05T00:37:42.320Z,101082.00
2018-09-05T00:40:11.547Z,101080.00
2018-09-05T00:42:40.852Z,101081.00
2018-09-05T00:45:10.302Z,101084.00
2018-09-05T00:47:39.618Z,101090.00
2018-09-05T00:50:09.115Z,101087.00
2018-09-05T00:52:38.447Z,101079.00
2018-09-05T00:55:07.832Z,101082.00
2018-09-05T00:57:37.282Z,101079.00
2018-09-05T01:00:06.511Z,101089.00
2018-09-05T01:02:36.294Z,101084.00
2018-09-05T01:05:05.731Z,101088.00
2018-09-05T01:07:35.554Z,101077.00
2018-09-05T01:10:05.022Z,101080.00
2018-09-05T01:12:34.281Z,101091.00
2018-09-05T01:15:04.164Z,101079.00
2018-09-05T01:17:34.309Z,101076.00
2018-09-05T01:20:04.026Z,101076.00
2018-09-05T01:22:33.385Z,101076.00
2018-09-05T01:25:03.113Z,101079.00
2018-09-05T01:27:32.536Z,101085.00
2018-09-05T01:30:01.762Z,101081.00
2018-09-05T01:32:31.254Z,101086.00
2018-09-05T01:35:00.906Z,101087.00
2018-09-05T01:37:30.523Z,101085.00
2018-09-05T01:40:00.068Z,101071.00
2018-09-05T01:42:29.790Z,101077.00
2018-09-05T01:44:59.056Z,101077.00
2018-09-05T01:47:28.692Z,101083.00
2018-09-05T01:49:58.190Z,101080.00
2018-09-05T01:52:27.594Z,101088.00
2018-09-05T01:54:56.886Z,101082.00
2018-09-05T01:57:26.233Z,101086.00
2018-09-05T01:59:56.383Z,101088.00
2018-09-05T02:02:26.190Z,101080.00
2018-09-05T02:04:56.106Z,101079.00
2018-09-05T02:07:25.482Z,101079.00
2018-09-05T02:09:55.373Z,101073.00
2018-09-05T02:12:24.792Z,101077.00
2018-09-05T02:14:54.630Z,101075.00
2018-09-05T02:17:24.104Z,101076.00
2018-09-05T02:19:53.666Z,101071.00
2018-09-05T02:22:23.121Z,101075.00
2018-09-05T02:24:52.806Z,101081.00
2018-09-05T02:27:22.268Z,101079.00
2018-09-05T02:29:51.884Z,101073.00
2018-09-05T02:32:21.352Z,101066.00
2018-09-05T02:34:50.624Z,101064.00
2018-09-05T02:37:19.835Z,101060.00
2018-09-05T02:39:49.068Z,101066.00
2018-09-05T02:42:19.044Z,101070.00
2018-09-05T02:44:48.946Z,101062.00
2018-09-05T02:47:18.851Z,101067.00
2018-09-05T02:49:48.358Z,101071.00
2018-09-05T02:52:17.809Z,101064.00
2018-09-05T02:54:47.003Z,101076.00
2018-09-05T02:57:16.976Z,101065.00
2018-09-05T02:59:46.638Z,101067.00
2018-09-05T03:02:16.324Z,101072.00
2018-09-05T03:04:45.875Z,101068.00
2018-09-05T03:07:15.982Z,101070.00
2018-09-05T03:09:45.533Z,101070.00
2018-09-05T03:12:19.439Z,101073.00
2018-09-05T03:14:49.748Z,101079.00
2018-09-05T03:17:19.396Z,101084.00
2018-09-05T03:19:48.750Z,101073.00
2018-09-05T03:22:18.476Z,101072.00
2018-09-05T03:24:48.172Z,101076.00
2018-09-05T03:27:17.692Z,101078.00
2018-09-05T03:29:47.220Z,101072.00
2018-09-05T03:32:16.414Z,101068.00
2018-09-05T03:34:45.959Z,101078.00
2018-09-05T03:37:15.324Z,101073.00
2018-09-05T03:39:44.922Z,101071.00
2018-09-05T03:42:14.626Z,101071.00
2018-09-05T03:44:44.233Z,101073.00
2018-09-05T03:47:13.964Z,101067.00
2018-09-05T03:49:43.450Z,101068.00
2018-09-05T03:52:13.389Z,101072.00
2018-09-05T03:54:42.989Z,101073.00
2018-09-05T04:40:07.516Z,101089.00
2018-09-05T04:42:36.898Z,101088.00
2018-09-05T04:45:06.622Z,101088.00
2018-09-05T04:47:36.949Z,101094.00
2018-09-05T04:50:07.143Z,101096.00
2018-09-05T04:52:38.146Z,101106.00
2018-09-05T04:55:08.198Z,101110.00
2018-09-05T04:57:39.692Z,101105.00
2018-09-05T05:00:10.109Z,101100.00
2018-09-05T05:02:40.928Z,101102.00
2018-09-05T05:05:11.559Z,101110.00
2018-09-05T05:07:42.307Z,101115.00
2018-09-05T05:10:13.077Z,101112.00
2018-09-05T05:12:43.594Z,101119.00
2018-09-05T05:15:13.847Z,101121.00
2018-09-05T05:17:44.395Z,101127.00
2018-09-05T05:20:14.784Z,101120.00
2018-09-05T05:22:46.484Z,101131.00
2018-09-05T05:25:17.759Z,101125.00
2018-09-05T05:27:49.279Z,101136.00
2018-09-05T05:30:20.061Z,101140.00
2018-09-05T05:32:51.386Z,101131.00
2018-09-05T05:35:22.093Z,101130.00
2018-09-05T05:37:52.143Z,101132.00
2018-09-05T05:40:23.256Z,101130.00
2018-09-05T05:42:53.324Z,101122.00
2018-09-05T05:45:23.797Z,101136.00
2018-09-05T05:47:54.881Z,101138.00
2018-09-05T05:50:25.650Z,101144.00
2018-09-05T05:52:59.769Z,101137.00
2018-09-05T05:55:30.729Z,101142.00
2018-09-05T05:58:01.507Z,101147.00
2018-09-05T06:00:32.391Z,101142.00
2018-09-05T06:03:03.126Z,101141.00
2018-09-05T06:05:34.243Z,101141.00
2018-09-05T06:08:04.787Z,101140.00
2018-09-05T06:10:36.288Z,101151.00
2018-09-05T06:13:06.784Z,101144.00
2018-09-05T06:15:37.274Z,101150.00
2018-09-05T06:18:09.580Z,101157.00
2018-09-05T06:20:40.871Z,101156.00
2018-09-05T06:23:11.374Z,101162.00
2018-09-05T06:25:41.723Z,101163.00
2018-09-05T06:28:14.448Z,101154.00
2018-09-05T06:30:45.407Z,101157.00
2018-09-05T06:33:16.581Z,101167.00
2018-09-05T06:35:47.452Z,101160.00
2018-09-05T06:38:18.186Z,101158.00
2018-09-05T06:40:48.353Z,101163.00
2018-09-05T06:43:20.408Z,101169.00
2018-09-05T06:45:51.017Z,101163.00
2018-09-05T06:48:25.469Z,101155.00
2018-09-05T06:51:01.628Z,101162.00
2018-09-05T06:53:33.034Z,101163.00
2018-09-05T06:56:05.000Z,101173.00
2018-09-05T06:58:35.794Z,101174.00
2018-09-05T07:01:06.303Z,101176.00
2018-09-05T07:03:37.254Z,101182.00
2018-09-05T07:06:08.738Z,101185.00
2018-09-05T07:08:39.791Z,101185.00
2018-09-05T07:11:10.749Z,101185.00
2018-09-05T07:13:41.405Z,101187.00
2018-09-05T07:16:12.132Z,101189.00
2018-09-05T07:18:43.352Z,101197.00
2018-09-05T07:21:14.414Z,101199.00
2018-09-05T07:23:44.834Z,101201.00
2018-09-05T07:26:15.816Z,101208.00
2018-09-05T07:28:46.093Z,101215.00
2018-09-05T07:31:16.953Z,101192.00
2018-09-05T07:33:47.738Z,101205.00
2018-09-05T07:36:18.879Z,101203.00
2018-09-05T07:38:49.843Z,101201.00
2018-09-05T07:41:20.553Z,101201.00
2018-09-05T07:43:50.998Z,101212.00
2018-09-05T07:46:21.731Z,101206.00
2018-09-05T07:48:52.087Z,101211.00
2018-09-05T07:51:22.498Z,101205.00
2018-09-05T07:53:53.309Z,101210.00
2018-09-05T07:56:24.487Z,101209.00
2018-09-05T07:58:54.553Z,101207.00
2018-09-05T08:01:25.022Z,101207.00
2018-09-05T08:03:56.299Z,101211.00
2018-09-05T08:06:26.393Z,101212.00
2018-09-05T08:08:57.109Z,101206.00
2018-09-05T08:11:28.145Z,101210.00
2018-09-05T08:14:02.147Z,101205.00
2018-09-05T08:16:32.297Z,101204.00
2018-09-05T08:19:03.299Z,101208.00
2018-09-05T08:21:33.353Z,101206.00
2018-09-05T08:24:04.112Z,101205.00
2018-09-05T08:26:34.673Z,101222.00
2018-09-05T08:29:05.605Z,101207.00
2018-09-05T08:31:36.773Z,101209.00
2018-09-05T08:34:07.293Z,101213.00
2018-09-05T08:36:38.779Z,101210.00
2018-09-05T08:39:12.957Z,101215.00
2018-09-05T08:41:43.406Z,101206.00
2018-09-05T08:44:13.936Z,101204.00
2018-09-05T08:46:44.038Z,101199.00
2018-09-05T08:49:14.921Z,101196.00
2018-09-05T08:51:46.368Z,101201.00
2018-09-05T08:54:17.337Z,101206.00
2018-09-05T08:56:48.184Z,101208.00
2018-09-05T08:59:18.185Z,101196.00
2018-09-05T09:01:48.961Z,101202.00
2018-09-05T09:04:19.786Z,101201.00
2018-09-05T09:06:50.686Z,101197.00
2018-09-05T09:09:20.934Z,101203.00
2018-09-05T09:11:51.614Z,101208.00
2018-09-05T09:14:22.232Z,101199.00
2018-09-05T09:16:52.589Z,101191.00
2018-09-05T09:19:23.212Z,101197.00
2018-09-05T09:21:53.313Z,101196.00
2018-09-05T09:24:24.535Z,101199.00
2018-09-05T09:26:55.153Z,101185.00
2018-09-05T09:29:25.178Z,101186.00
2018-09-05T09:31:55.784Z,101178.00
2018-09-05T09:34:26.129Z,101174.00
2018-09-05T09:36:56.760Z,101172.00
2018-09-05T09:39:27.299Z,101172.00
2018-09-05T09:41:58.417Z,101173.00
2018-09-05T09:44:28.644Z,101169.00
2018-09-05T09:46:59.569Z,101169.00
2018-09-05T09:49:29.714Z,101154.00
2018-09-05T09:52:04.911Z,101162.00
2018-09-05T09:54:34.756Z,101151.00
2018-09-05T09:57:05.202Z,101159.00
2018-09-05T09:59:35.816Z,101151.00
2018-09-05T10:02:11.186Z,101157.00
2018-09-05T10:04:47.091Z,101153.00
2018-09-05T10:07:22.318Z,101143.00
2018-09-05T10:10:00.036Z,101145.00
2018-09-05T10:12:34.791Z,101134.00
2018-09-05T10:15:09.907Z,101137.00
2018-09-05T10:17:40.771Z,101138.00
2018-09-05T10:20:10.907Z,101139.00
2018-09-05T10:22:41.375Z,101137.00
2018-09-05T10:25:12.035Z,101127.00
2018-09-05T10:27:44.710Z,101132.00
2018-09-05T10:30:15.475Z,101122.00
2018-09-05T10:32:45.297Z,101129.00
2018-09-05T10:35:16.064Z,101117.00
2018-09-05T10:37:46.394Z,101131.00
2018-09-05T10:40:17.121Z,101120.00
2018-09-05T10:42:47.293Z,101114.00
2018-09-05T10:45:17.653Z,101115.00
2018-09-05T10:47:47.735Z,101117.00
2018-09-05T10:50:18.308Z,101111.00
2018-09-05T10:52:49.365Z,101109.00
2018-09-05T10:55:19.449Z,101116.00
2018-09-05T10:57:49.817Z,101111.00
2018-09-05T11:00:20.083Z,101102.00
2018-09-05T11:02:49.970Z,101109.00
2018-09-05T11:05:19.915Z,101100.00
2018-09-05T11:07:49.853Z,101095.00
2018-09-05T11:10:19.974Z,101085.00
2018-09-05T11:12:49.953Z,101102.00
2018-09-05T11:15:19.894Z,101081.00
2018-09-05T11:17:50.229Z,101087.00
2018-09-05T11:20:20.293Z,101086.00
2018-09-05T11:22:50.687Z,101081.00
2018-09-05T11:25:20.687Z,101082.00
2018-09-05T11:27:51.262Z,101082.00
2018-09-05T11:30:21.284Z,101088.00
2018-09-05T11:32:51.382Z,101075.00
2018-09-05T11:35:21.274Z,101076.00
2018-09-05T11:37:52.084Z,101084.00
2018-09-05T11:40:22.320Z,101076.00
2018-09-05T11:42:52.443Z,101072.00
2018-09-05T11:45:22.568Z,101070.00
2018-09-05T11:47:53.254Z,101079.00
2018-09-05T11:50:23.553Z,101080.00
2018-09-05T11:52:53.471Z,101073.00
2018-09-05T11:55:24.021Z,101075.00
2018-09-05T11:57:54.261Z,101066.00
2018-09-05T12:00:25.047Z,101066.00
2018-09-05T12:02:54.833Z,101074.00
2018-09-05T12:05:25.030Z,101076.00
2018-09-05T12:07:54.523Z,101073.00
2018-09-05T12:10:24.584Z,101069.00
2018-09-05T12:12:54.546Z,101073.00
2018-09-05T12:15:24.625Z,101064.00
2018-09-05T12:17:54.600Z,101056.00
2018-09-05T12:20:25.071Z,101055.00
2018-09-05T12:22:55.004Z,101055.00
2018-09-05T12:25:24.833Z,101046.00
2018-09-05T12:27:54.884Z,101044.00
2018-09-05T12:30:24.949Z,101049.00
2018-09-05T12:32:54.760Z,101052.00
2018-09-05T12:35:24.784Z,101040.00
2018-09-05T12:37:54.792Z,101045.00
2018-09-05T12:40:24.687Z,101040.00
2018-09-05T12:42:54.510Z,101036.00
2018-09-05T12:45:24.456Z,101045.00
2018-09-05T12:47:54.860Z,101051.00
2018-09-05T12:50:31.006Z,101044.00
2018-09-05T12:53:00.751Z,101042.00
2018-09-05T12:55:30.673Z,101041.00
2018-09-05T12:58:00.716Z,101040.00
2018-09-05T13:00:30.601Z,101042.00
2018-09-05T13:03:00.699Z,101032.00
2018-09-05T13:05:30.984Z,101029.00
2018-09-05T13:08:01.229Z,101033.00
2018-09-05T13:10:31.005Z,101022.00
2018-09-05T13:13:00.647Z,101024.00
2018-09-05T13:15:30.819Z,101029.00
2018-09-05T13:18:00.546Z,101019.00
2018-09-05T13:20:30.953Z,101019.00
2018-09-05T13:23:00.927Z,101012.00
2018-09-05T13:25:30.626Z,101019.00
2018-09-05T13:28:00.157Z,101010.00
2018-09-05T13:30:30.289Z,101002.00
2018-09-05T13:33:00.215Z,101009.00
2018-09-05T13:35:29.712Z,101002.00
2018-09-05T13:37:59.624Z,101010.00
2018-09-05T13:40:29.914Z,100998.00
2018-09-05T13:43:00.750Z,100997.00
2018-09-05T13:45:31.077Z,100997.00
2018-09-05T13:48:00.993Z,101002.00
2018-09-05T13:50:31.223Z,100994.00
2018-09-05T13:53:01.417Z,100989.00
2018-09-05T13:55:33.568Z,100988.00
2018-09-05T13:58:04.818Z,100982.00
2018-09-05T14:00:35.386Z,100986.00
2018-09-05T14:03:06.103Z,100983.00
2018-09-05T14:05:37.069Z,100978.00
2018-09-05T14:08:07.480Z,100978.00
2018-09-05T14:10:37.561Z,100978.00
2018-09-05T14:13:08.078Z,100977.00
2018-09-05T14:15:38.427Z,100968.00
2018-09-05T14:18:09.010Z,100975.00
2018-09-05T14:20:39.721Z,100973.00
2018-09-05T14:23:10.120Z,100968.00
2018-09-05T14:25:39.887Z,100959.00
2018-09-05T14:28:10.010Z,100971.00
2018-09-05T14:30:40.928Z,100970.00
2018-09-05T14:33:10.998Z,100963.00
2018-09-05T14:35:41.049Z,100970.00
2018-09-05T14:38:11.119Z,100962.00
2018-09-05T14:40:40.994Z,100960.00
2018-09-05T14:43:10.963Z,100961.00
2018-09-05T14:45:41.590Z,100959.00
2018-09-05T14:48:11.737Z,100952.00
2018-09-05T14:50:42.708Z,100955.00
2018-09-05T14:53:13.463Z,100956.00
2018-09-05T14:55:44.994Z,100947.00
2018-09-05T14:58:16.617Z,100944.00
2018-09-05T15:00:47.372Z,100947.00
2018-09-05T15:03:19.238Z,100943.00
2018-09-05T15:05:50.034Z,100937.00
2018-09-05T15:08:21.294Z,100931.00
2018-09-05T15:10:52.818Z,100934.00
2018-09-05T15:13:23.554Z,100937.00
2018-09-05T15:15:54.126Z,100935.00
2018-09-05T15:18:24.189Z,100932.00
2018-09-05T15:20:54.756Z,100936.00
2018-09-05T15:23:27.104Z,100935.00
2018-09-05T15:25:58.424Z,100931.00
2018-09-05T15:28:29.480Z,100924.00
2018-09-05T15:30:59.962Z,100923.00
2018-09-05T15:33:30.182Z,100919.00
2018-09-05T15:36:01.032Z,100914.00
2018-09-05T15:38:31.200Z,100911.00
2018-09-05T15:41:01.355Z,100918.00
2018-09-05T15:43:31.848Z,100913.00
2018-09-05T15:46:02.451Z,100908.00
2018-09-05T15:48:32.930Z,100912.00
2018-09-05T15:51:03.530Z,100914.00
2018-09-05T15:53:33.846Z,100912.00
2018-09-05T15:56:04.551Z,100913.00
2018-09-05T15:58:35.108Z,100908.00
2018-09-05T16:01:07.108Z,100910.00
2018-09-05T16:03:38.521Z,100904.00
2018-09-05T16:06:09.088Z,100904.00
2018-09-05T16:08:42.694Z,100901.00
2018-09-05T16:11:13.938Z,100901.00
2018-09-05T16:13:44.936Z,100900.00
2018-09-05T16:16:16.422Z,100903.00
2018-09-05T16:18:46.528Z,100907.00
2018-09-05T16:21:17.501Z,100902.00
2018-09-05T16:23:48.685Z,100905.00
2018-09-05T16:26:19.248Z,100898.00
2018-09-05T16:28:50.779Z,100902.00
2018-09-05T16:31:21.853Z,100903.00
2018-09-05T16:33:52.620Z,100893.00
2018-09-05T16:36:23.972Z,100909.00
2018-09-05T16:38:54.947Z,100901.00
2018-09-05T16:41:26.022Z,100894.00
2018-09-05T16:43:56.764Z,100905.00
2018-09-05T16:46:27.720Z,100891.00
2018-09-05T16:48:59.104Z,100893.00
2018-09-05T16:51:30.020Z,100901.00
2018-09-05T16:54:02.111Z,100892.00
2018-09-05T16:56:34.766Z,100898.00
2018-09-05T16:59:06.683Z,100889.00
2018-09-05T17:01:38.584Z,100888.00
2018-09-05T17:04:09.410Z,100895.00
2018-09-05T17:06:40.366Z,100883.00
2018-09-05T17:09:12.638Z,100895.00
2018-09-05T17:11:42.814Z,100885.00
2018-09-05T17:14:13.328Z,100893.00
2018-09-05T17:16:44.638Z,100880.00
2018-09-05T17:19:17.656Z,100886.00
2018-09-05T17:21:49.888Z,100878.00
2018-09-05T17:24:20.967Z,100885.00
2018-09-05T17:26:51.478Z,100891.00
2018-09-05T17:29:21.963Z,100880.00
2018-09-05T17:31:52.741Z,100887.00
2018-09-05T17:34:24.822Z,100889.00
2018-09-05T17:36:56.074Z,100890.00
2018-09-05T17:39:26.797Z,100887.00
2018-09-05T17:41:58.022Z,100891.00
2018-09-05T17:44:29.360Z,100893.00
2018-09-05T17:47:00.451Z,100895.00
2018-09-05T17:49:31.254Z,100901.00
2018-09-05T17:52:01.615Z,100886.00
2018-09-05T17:54:32.640Z,100891.00
2018-09-05T17:57:03.984Z,100890.00
2018-09-05T17:59:33.892Z,100889.00
2018-09-05T18:02:03.564Z,100892.00
2018-09-05T18:04:33.469Z,100897.00
2018-09-05T18:07:02.722Z,100893.00
2018-09-05T18:09:31.741Z,100889.00
2018-09-05T18:12:01.254Z,100901.00
2018-09-05T18:14:30.327Z,100894.00
2018-09-05T18:16:59.594Z,100894.00
2018-09-05T18:19:29.766Z,100899.00
2018-09-05T18:21:59.190Z,100897.00
2018-09-05T18:24:28.584Z,100897.00
2018-09-05T18:26:58.292Z,100901.00
2018-09-05T18:29:27.945Z,100910.00
2018-09-05T18:31:57.262Z,100905.00
2018-09-05T18:34:26.762Z,100908.00
2018-09-05T18:36:56.811Z,100899.00
2018-09-05T18:39:26.859Z,100902.00
2018-09-05T18:41:56.540Z,100895.00
2018-09-05T18:44:26.571Z,100893.00
2018-09-05T18:46:57.412Z,100907.00
2018-09-05T18:49:27.582Z,100900.00
2018-09-05T18:51:58.457Z,100902.00
2018-09-05T18:54:28.460Z,100903.00
2018-09-05T18:56:58.500Z,100908.00
2018-09-05T18:59:28.450Z,100904.00
2018-09-05T19:01:59.630Z,100906.00
2018-09-05T19:04:30.181Z,100899.00
2018-09-05T19:07:00.249Z,100909.00
2018-09-05T19:09:30.063Z,100905.00
2018-09-05T19:12:00.512Z,100907.00
2018-09-05T19:14:30.992Z,100911.00
2018-09-05T19:17:01.297Z,100900.00
2018-09-05T19:19:31.419Z,100903.00
2018-09-05T19:22:01.651Z,100902.00
2018-09-05T19:24:31.688Z,100899.00
2018-09-05T19:27:01.496Z,100898.00
2018-09-05T19:29:31.794Z,100903.00
2018-09-05T19:32:01.905Z,100897.00
2018-09-05T19:34:32.037Z,100895.00
2018-09-05T19:37:01.762Z,100900.00
2018-09-05T19:39:31.424Z,100900.00
2018-09-05T19:42:01.398Z,100898.00
2018-09-05T19:44:31.855Z,100896.00
2018-09-05T19:47:01.866Z,100897.00
2018-09-05T19:49:31.909Z,100885.00
2018-09-05T19:52:01.865Z,100896.00
2018-09-05T19:54:32.026Z,100896.00
2018-09-05T19:57:02.313Z,100897.00
2018-09-05T19:59:32.510Z,100894.00
2018-09-05T20:02:02.664Z,100890.00
2018-09-05T20:04:32.968Z,100898.00
2018-09-05T20:07:02.684Z,100898.00
2018-09-05T20:09:33.240Z,100887.00
2018-09-05T20:12:03.415Z,100886.00
2018-09-05T20:14:33.621Z,100892.00
2018-09-05T20:17:03.697Z,100894.00
2018-09-05T20:19:33.340Z,100890.00
2018-09-05T20:22:03.294Z,100892.00
2018-09-05T20:24:33.285Z,100896.00
2018-09-05T20:27:03.451Z,100895.00
2018-09-05T20:29:33.973Z,100891.00
2018-09-05T20:32:03.997Z,100888.00
2018-09-05T20:34:33.975Z,100891.00
2018-09-05T20:37:03.951Z,100886.00
2018-09-05T20:39:33.783Z,100887.00
2018-09-05T20:42:04.345Z,100888.00
2018-09-05T20:44:34.385Z,100880.00
2018-09-05T20:47:07.086Z,100888.00
2018-09-05T20:49:38.735Z,100886.00
2018-09-05T20:52:08.417Z,100889.00
2018-09-05T20:54:38.434Z,100879.00
2018-09-05T20:57:08.010Z,100883.00
2018-09-05T20:59:37.627Z,100888.00
2018-09-05T21:02:08.032Z,100881.00
2018-09-05T21:04:37.873Z,100875.00
2018-09-05T21:07:07.985Z,100876.00
2018-09-05T21:09:38.249Z,100875.00
2018-09-05T21:12:08.417Z,100873.00
2018-09-05T21:14:38.018Z,100878.00
2018-09-05T21:17:08.025Z,100878.00
2018-09-05T21:19:38.529Z,100873.00
2018-09-05T21:22:08.441Z,100870.00
2018-09-05T21:24:38.363Z,100878.00
2018-09-05T21:27:08.095Z,100867.00
2018-09-05T21:29:38.043Z,100862.00
2018-09-05T21:32:08.335Z,100863.00
2018-09-05T21:34:38.436Z,100866.00
2018-09-05T21:37:08.544Z,100862.00
2018-09-05T21:39:38.534Z,100862.00
2018-09-05T21:42:08.228Z,100864.00
2018-09-05T21:44:38.738Z,100859.00
2018-09-05T21:47:08.907Z,100859.00
2018-09-05T21:49:38.848Z,100867.00
2018-09-05T21:52:09.373Z,100866.00
2018-09-05T21:54:39.243Z,100859.00
2018-09-05T21:57:09.269Z,100866.00
2018-09-05T21:59:39.357Z,100863.00
2018-09-05T22:02:09.503Z,100865.00
2018-09-05T22:04:39.844Z,100868.00
2018-09-05T22:07:09.945Z,100870.00
2018-09-05T22:09:39.601Z,100871.00
2018-09-05T22:12:09.410Z,100865.00
2018-09-05T22:14:38.930Z,100861.00
2018-09-05T22:17:09.390Z,100867.00
2018-09-05T22:19:39.332Z,100865.00
2018-09-05T22:22:09.384Z,100863.00
2018-09-05T22:24:39.312Z,100859.00
2018-09-05T22:27:09.319Z,100870.00
2018-09-05T22:29:39.449Z,100861.00
2018-09-05T22:32:09.337Z,100863.00
2018-09-05T22:34:39.141Z,100871.00
2018-09-05T22:37:09.280Z,100859.00
2018-09-05T22:39:39.446Z,100861.00
2018-09-05T22:42:12.376Z,100866.00
2018-09-05T22:44:54.414Z,100849.00
2018-09-05T22:47:34.948Z,100854.00
2018-09-05T22:52:25.219Z,100858.00
2018-09-05T22:55:16.533Z,100852.00
2018-09-05T22:58:03.127Z,100860.00
2018-09-05T23:01:19.511Z,100861.00
2018-09-05T23:04:04.357Z,100854.00
2018-09-05T23:07:52.909Z,100854.00
2018-09-05T23:10:33.365Z,100854.00
2018-09-05T23:13:13.679Z,100854.00
2018-09-05T23:15:53.969Z,100844.00
2018-09-05T23:20:43.379Z,100853.00
2018-09-05T23:23:24.131Z,100835.00
2018-09-05T23:25:54.093Z,100835.00
2018-09-05T23:28:23.888Z,100837.00
2018-09-05T23:30:53.833Z,100832.00
2018-09-05T23:33:23.976Z,100827.00
2018-09-05T23:35:54.181Z,100821.00
2018-09-05T23:38:24.053Z,100816.00
2018-09-05T23:40:54.294Z,100815.00
2018-09-05T23:43:24.324Z,100815.00
2018-09-05T23:45:54.585Z,100810.00
2018-09-05T23:48:24.521Z,100810.00
2018-09-05T23:50:54.351Z,100805.00
2018-09-05T23:53:23.900Z,100809.00
2018-09-05T23:55:53.816Z,100803.00
2018-09-05T23:58:24.001Z,100805.00
